sensor_id;sensor_type;location;lat;lon;timestamp;P1;durP1;ratioP1;P2;durP2;ratioP2
50745;SDS011;36711;51.972;21.204;2023-07-09T00:01:56;14.80;;;7.00;;
50745;SDS011;36711;51.972;21.204;2023-07-09T00:04:25;9.80;;;6.10;;
50745;SDS011;36711;51.972;21.204;2023-07-09T00:06:55;9.60;;;5.80;;
50745;SDS011;36711;51.972;21.204;2023-07-09T00:09:24;13.10;;;6.80;;
50745;SDS011;36711;51.972;21.204;2023-07-09T00:11:52;13.40;;;7.50;;
50745;SDS011;36711;51.972;21.204;2023-07-09T00:14:21;15.40;;;7.00;;
50745;SDS011;36711;51.972;21.204;2023-07-09T00:16:50;10.70;;;7.30;;
50745;SDS011;36711;51.972;21.204;2023-07-09T00:19:20;11.60;;;6.90;;
50745;SDS011;36711;51.972;21.204;2023-07-09T00:21:49;11.00;;;6.00;;
50745;SDS011;36711;51.972;21.204;2023-07-09T00:24:22;12.00;;;6.00;;
50745;SDS011;36711;51.972;21.204;2023-07-09T00:26:51;8.80;;;6.00;;
50745;SDS011;36711;51.972;21.204;2023-07-09T00:29:20;9.00;;;5.90;;
50745;SDS011;36711;51.972;21.204;2023-07-09T00:31:48;11.80;;;5.90;;
50745;SDS011;36711;51.972;21.204;2023-07-09T00:34:18;10.10;;;5.90;;
50745;SDS011;36711;51.972;21.204;2023-07-09T00:36:50;7.40;;;5.50;;
50745;SDS011;36711;51.972;21.204;2023-07-09T00:39:20;7.00;;;5.20;;
50745;SDS011;36711;51.972;21.204;2023-07-09T00:41:50;7.60;;;5.40;;
50745;SDS011;36711;51.972;21.204;2023-07-09T00:49:32;12.50;;;5.30;;
50745;SDS011;36711;51.972;21.204;2023-07-09T00:52:22;8.80;;;4.80;;
50745;SDS011;36711;51.972;21.204;2023-07-09T00:54:52;8.80;;;5.60;;
50745;SDS011;36711;51.972;21.204;2023-07-09T00:57:21;6.60;;;5.20;;
50745;SDS011;36711;51.972;21.204;2023-07-09T00:59:52;8.70;;;5.60;;
50745;SDS011;36711;51.972;21.204;2023-07-09T01:02:22;7.70;;;5.30;;
50745;SDS011;36711;51.972;21.204;2023-07-09T01:04:54;8.80;;;5.60;;
50745;SDS011;36711;51.972;21.204;2023-07-09T01:07:24;6.90;;;5.00;;
50745;SDS011;36711;51.972;21.204;2023-07-09T01:09:53;8.60;;;5.70;;
50745;SDS011;36711;51.972;21.204;2023-07-09T01:12:22;9.90;;;5.70;;
50745;SDS011;36711;51.972;21.204;2023-07-09T01:14:51;10.30;;;5.20;;
50745;SDS011;36711;51.972;21.204;2023-07-09T01:17:21;7.30;;;5.50;;
50745;SDS011;36711;51.972;21.204;2023-07-09T01:19:50;9.60;;;5.40;;
50745;SDS011;36711;51.972;21.204;2023-07-09T01:22:19;6.40;;;4.70;;
50745;SDS011;36711;51.972;21.204;2023-07-09T01:27:18;9.00;;;5.40;;
50745;SDS011;36711;51.972;21.204;2023-07-09T01:29:48;9.50;;;4.60;;
50745;SDS011;36711;51.972;21.204;2023-07-09T01:32:18;7.40;;;5.20;;
50745;SDS011;36711;51.972;21.204;2023-07-09T01:34:49;8.70;;;5.00;;
50745;SDS011;36711;51.972;21.204;2023-07-09T01:37:19;6.00;;;4.90;;
50745;SDS011;36711;51.972;21.204;2023-07-09T01:39:50;8.30;;;4.40;;
50745;SDS011;36711;51.972;21.204;2023-07-09T01:42:21;5.50;;;3.90;;
50745;SDS011;36711;51.972;21.204;2023-07-09T01:44:52;6.10;;;3.70;;
50745;SDS011;36711;51.972;21.204;2023-07-09T01:47:22;6.30;;;4.50;;
50745;SDS011;36711;51.972;21.204;2023-07-09T01:49:53;5.90;;;4.20;;
50745;SDS011;36711;51.972;21.204;2023-07-09T01:52:27;7.20;;;4.50;;
50745;SDS011;36711;51.972;21.204;2023-07-09T01:54:57;9.00;;;4.70;;
50745;SDS011;36711;51.972;21.204;2023-07-09T01:57:27;6.80;;;4.60;;
50745;SDS011;36711;51.972;21.204;2023-07-09T02:00:09;9.70;;;4.50;;
50745;SDS011;36711;51.972;21.204;2023-07-09T02:02:40;7.10;;;4.40;;
50745;SDS011;36711;51.972;21.204;2023-07-09T02:05:12;9.40;;;5.10;;
50745;SDS011;36711;51.972;21.204;2023-07-09T02:07:41;5.90;;;4.70;;
50745;SDS011;36711;51.972;21.204;2023-07-09T02:10:11;7.40;;;5.00;;
50745;SDS011;36711;51.972;21.204;2023-07-09T02:12:40;6.40;;;4.70;;
50745;SDS011;36711;51.972;21.204;2023-07-09T02:15:09;6.40;;;4.40;;
50745;SDS011;36711;51.972;21.204;2023-07-09T02:17:37;7.30;;;5.10;;
50745;SDS011;36711;51.972;21.204;2023-07-09T02:20:07;6.80;;;4.70;;
50745;SDS011;36711;51.972;21.204;2023-07-09T02:22:36;5.50;;;4.40;;
50745;SDS011;36711;51.972;21.204;2023-07-09T02:25:06;6.30;;;4.60;;
50745;SDS011;36711;51.972;21.204;2023-07-09T02:27:35;6.20;;;4.70;;
50745;SDS011;36711;51.972;21.204;2023-07-09T02:30:05;8.10;;;4.60;;
50745;SDS011;36711;51.972;21.204;2023-07-09T02:32:34;9.50;;;4.10;;
50745;SDS011;36711;51.972;21.204;2023-07-09T02:35:04;8.70;;;3.70;;
50745;SDS011;36711;51.972;21.204;2023-07-09T02:37:33;5.30;;;3.60;;
50745;SDS011;36711;51.972;21.204;2023-07-09T02:40:02;4.60;;;3.80;;
50745;SDS011;36711;51.972;21.204;2023-07-09T02:42:32;7.30;;;4.10;;
50745;SDS011;36711;51.972;21.204;2023-07-09T02:45:01;7.80;;;4.30;;
50745;SDS011;36711;51.972;21.204;2023-07-09T02:47:31;6.20;;;4.20;;
50745;SDS011;36711;51.972;21.204;2023-07-09T02:50:00;7.40;;;4.00;;
50745;SDS011;36711;51.972;21.204;2023-07-09T02:52:29;9.60;;;3.90;;
50745;SDS011;36711;51.972;21.204;2023-07-09T02:54:58;6.70;;;4.10;;
50745;SDS011;36711;51.972;21.204;2023-07-09T02:57:26;6.50;;;4.30;;
50745;SDS011;36711;51.972;21.204;2023-07-09T02:59:55;8.90;;;4.40;;
50745;SDS011;36711;51.972;21.204;2023-07-09T03:02:24;6.20;;;4.20;;
50745;SDS011;36711;51.972;21.204;2023-07-09T03:04:53;7.50;;;4.00;;
50745;SDS011;36711;51.972;21.204;2023-07-09T03:07:22;6.20;;;3.90;;
50745;SDS011;36711;51.972;21.204;2023-07-09T03:09:51;9.10;;;4.00;;
50745;SDS011;36711;51.972;21.204;2023-07-09T03:12:20;7.50;;;4.50;;
50745;SDS011;36711;51.972;21.204;2023-07-09T03:14:48;8.10;;;4.20;;
50745;SDS011;36711;51.972;21.204;2023-07-09T03:17:17;7.30;;;4.00;;
50745;SDS011;36711;51.972;21.204;2023-07-09T03:19:47;6.20;;;4.30;;
50745;SDS011;36711;51.972;21.204;2023-07-09T03:22:15;6.80;;;3.90;;
50745;SDS011;36711;51.972;21.204;2023-07-09T03:24:45;5.50;;;4.10;;
50745;SDS011;36711;51.972;21.204;2023-07-09T03:27:14;5.70;;;4.20;;
50745;SDS011;36711;51.972;21.204;2023-07-09T03:29:42;8.80;;;4.10;;
50745;SDS011;36711;51.972;21.204;2023-07-09T03:32:11;5.70;;;3.90;;
50745;SDS011;36711;51.972;21.204;2023-07-09T03:34:40;4.50;;;3.30;;
50745;SDS011;36711;51.972;21.204;2023-07-09T03:37:09;5.80;;;3.40;;
50745;SDS011;36711;51.972;21.204;2023-07-09T03:39:38;4.50;;;3.60;;
50745;SDS011;36711;51.972;21.204;2023-07-09T03:42:07;7.70;;;3.60;;
50745;SDS011;36711;51.972;21.204;2023-07-09T03:44:38;5.10;;;3.70;;
50745;SDS011;36711;51.972;21.204;2023-07-09T03:47:06;5.30;;;3.70;;
50745;SDS011;36711;51.972;21.204;2023-07-09T03:49:35;4.10;;;3.80;;
50745;SDS011;36711;51.972;21.204;2023-07-09T03:52:04;6.60;;;3.80;;
50745;SDS011;36711;51.972;21.204;2023-07-09T03:54:33;7.90;;;4.20;;
50745;SDS011;36711;51.972;21.204;2023-07-09T03:57:02;8.00;;;4.00;;
50745;SDS011;36711;51.972;21.204;2023-07-09T03:59:30;9.20;;;4.20;;
50745;SDS011;36711;51.972;21.204;2023-07-09T04:01:59;7.80;;;4.30;;
50745;SDS011;36711;51.972;21.204;2023-07-09T04:04:30;4.50;;;3.70;;
50745;SDS011;36711;51.972;21.204;2023-07-09T04:06:58;4.30;;;3.80;;
50745;SDS011;36711;51.972;21.204;2023-07-09T04:09:27;5.90;;;4.10;;
50745;SDS011;36711;51.972;21.204;2023-07-09T04:11:56;10.80;;;4.30;;
50745;SDS011;36711;51.972;21.204;2023-07-09T04:14:25;5.00;;;3.60;;
50745;SDS011;36711;51.972;21.204;2023-07-09T04:16:54;6.80;;;4.10;;
50745;SDS011;36711;51.972;21.204;2023-07-09T04:19:23;6.40;;;3.50;;
50745;SDS011;36711;51.972;21.204;2023-07-09T04:21:52;6.70;;;3.90;;
50745;SDS011;36711;51.972;21.204;2023-07-09T04:24:20;5.10;;;3.70;;
50745;SDS011;36711;51.972;21.204;2023-07-09T04:26:49;3.90;;;3.50;;
50745;SDS011;36711;51.972;21.204;2023-07-09T04:29:18;8.00;;;4.00;;
50745;SDS011;36711;51.972;21.204;2023-07-09T04:31:47;3.90;;;3.40;;
50745;SDS011;36711;51.972;21.204;2023-07-09T04:34:16;5.20;;;3.70;;
50745;SDS011;36711;51.972;21.204;2023-07-09T04:36:44;6.90;;;3.50;;
50745;SDS011;36711;51.972;21.204;2023-07-09T04:39:13;8.40;;;3.80;;
50745;SDS011;36711;51.972;21.204;2023-07-09T04:41:43;9.00;;;3.50;;
50745;SDS011;36711;51.972;21.204;2023-07-09T04:44:12;6.50;;;3.60;;
50745;SDS011;36711;51.972;21.204;2023-07-09T04:46:44;3.50;;;3.20;;
50745;SDS011;36711;51.972;21.204;2023-07-09T04:49:25;5.40;;;3.30;;
50745;SDS011;36711;51.972;21.204;2023-07-09T04:51:54;5.00;;;3.40;;
50745;SDS011;36711;51.972;21.204;2023-07-09T04:54:25;8.10;;;3.20;;
50745;SDS011;36711;51.972;21.204;2023-07-09T04:56:54;7.20;;;3.50;;
50745;SDS011;36711;51.972;21.204;2023-07-09T04:59:25;6.10;;;2.90;;
50745;SDS011;36711;51.972;21.204;2023-07-09T05:01:53;6.20;;;3.40;;
50745;SDS011;36711;51.972;21.204;2023-07-09T05:04:22;5.70;;;3.30;;
50745;SDS011;36711;51.972;21.204;2023-07-09T05:06:51;5.30;;;3.30;;
50745;SDS011;36711;51.972;21.204;2023-07-09T05:09:20;4.50;;;3.60;;
50745;SDS011;36711;51.972;21.204;2023-07-09T05:11:49;5.30;;;3.10;;
50745;SDS011;36711;51.972;21.204;2023-07-09T05:14:18;6.40;;;3.40;;
50745;SDS011;36711;51.972;21.204;2023-07-09T05:16:47;3.70;;;3.00;;
50745;SDS011;36711;51.972;21.204;2023-07-09T05:19:15;5.30;;;3.20;;
50745;SDS011;36711;51.972;21.204;2023-07-09T05:21:44;7.30;;;3.10;;
50745;SDS011;36711;51.972;21.204;2023-07-09T05:24:13;5.90;;;3.10;;
50745;SDS011;36711;51.972;21.204;2023-07-09T05:26:42;3.50;;;2.90;;
50745;SDS011;36711;51.972;21.204;2023-07-09T05:29:10;3.50;;;2.90;;
50745;SDS011;36711;51.972;21.204;2023-07-09T05:31:39;4.70;;;2.80;;
50745;SDS011;36711;51.972;21.204;2023-07-09T05:34:10;6.20;;;2.80;;
50745;SDS011;36711;51.972;21.204;2023-07-09T05:36:39;4.10;;;2.70;;
50745;SDS011;36711;51.972;21.204;2023-07-09T05:39:11;4.60;;;2.80;;
50745;SDS011;36711;51.972;21.204;2023-07-09T05:41:44;2.80;;;2.60;;
50745;SDS011;36711;51.972;21.204;2023-07-09T05:44:13;5.80;;;3.30;;
50745;SDS011;36711;51.972;21.204;2023-07-09T05:46:42;6.00;;;2.80;;
50745;SDS011;36711;51.972;21.204;2023-07-09T05:49:11;3.50;;;2.60;;
50745;SDS011;36711;51.972;21.204;2023-07-09T05:51:42;2.90;;;2.60;;
50745;SDS011;36711;51.972;21.204;2023-07-09T05:54:10;4.60;;;2.60;;
50745;SDS011;36711;51.972;21.204;2023-07-09T05:56:39;4.00;;;2.70;;
50745;SDS011;36711;51.972;21.204;2023-07-09T05:59:08;5.60;;;3.10;;
50745;SDS011;36711;51.972;21.204;2023-07-09T06:01:37;5.10;;;2.80;;
50745;SDS011;36711;51.972;21.204;2023-07-09T06:04:06;3.60;;;2.70;;
50745;SDS011;36711;51.972;21.204;2023-07-09T06:06:35;3.10;;;2.40;;
50745;SDS011;36711;51.972;21.204;2023-07-09T06:09:04;4.20;;;2.60;;
50745;SDS011;36711;51.972;21.204;2023-07-09T06:11:32;3.70;;;2.50;;
50745;SDS011;36711;51.972;21.204;2023-07-09T06:14:01;6.70;;;2.50;;
50745;SDS011;36711;51.972;21.204;2023-07-09T06:16:31;4.50;;;2.40;;
50745;SDS011;36711;51.972;21.204;2023-07-09T06:18:59;3.90;;;2.70;;
50745;SDS011;36711;51.972;21.204;2023-07-09T06:21:28;3.30;;;2.60;;
50745;SDS011;36711;51.972;21.204;2023-07-09T06:23:57;4.60;;;2.20;;
50745;SDS011;36711;51.972;21.204;2023-07-09T06:26:26;6.20;;;2.50;;
50745;SDS011;36711;51.972;21.204;2023-07-09T06:28:55;10.30;;;3.20;;
50745;SDS011;36711;51.972;21.204;2023-07-09T06:31:24;3.80;;;2.60;;
50745;SDS011;36711;51.972;21.204;2023-07-09T06:33:53;3.80;;;2.30;;
50745;SDS011;36711;51.972;21.204;2023-07-09T06:36:22;3.40;;;2.70;;
50745;SDS011;36711;51.972;21.204;2023-07-09T06:38:50;3.00;;;2.20;;
50745;SDS011;36711;51.972;21.204;2023-07-09T06:41:19;4.30;;;2.40;;
50745;SDS011;36711;51.972;21.204;2023-07-09T06:43:49;7.70;;;3.60;;
50745;SDS011;36711;51.972;21.204;2023-07-09T06:46:18;9.90;;;3.00;;
50745;SDS011;36711;51.972;21.204;2023-07-09T06:48:49;4.10;;;2.30;;
50745;SDS011;36711;51.972;21.204;2023-07-09T06:51:18;13.40;;;3.00;;
50745;SDS011;36711;51.972;21.204;2023-07-09T06:53:47;6.40;;;2.80;;
50745;SDS011;36711;51.972;21.204;2023-07-09T06:56:18;6.00;;;2.30;;
50745;SDS011;36711;51.972;21.204;2023-07-09T06:58:47;4.70;;;2.00;;
50745;SDS011;36711;51.972;21.204;2023-07-09T07:01:16;4.80;;;2.10;;
50745;SDS011;36711;51.972;21.204;2023-07-09T07:03:48;4.30;;;1.80;;
50745;SDS011;36711;51.972;21.204;2023-07-09T07:06:17;2.50;;;2.20;;
50745;SDS011;36711;51.972;21.204;2023-07-09T07:08:46;5.30;;;2.00;;
50745;SDS011;36711;51.972;21.204;2023-07-09T07:11:15;6.00;;;1.70;;
50745;SDS011;36711;51.972;21.204;2023-07-09T07:13:43;2.10;;;1.80;;
50745;SDS011;36711;51.972;21.204;2023-07-09T07:16:12;4.00;;;1.60;;
50745;SDS011;36711;51.972;21.204;2023-07-09T07:18:41;4.80;;;1.90;;
50745;SDS011;36711;51.972;21.204;2023-07-09T07:21:10;3.20;;;2.10;;
50745;SDS011;36711;51.972;21.204;2023-07-09T07:23:39;4.00;;;1.70;;
50745;SDS011;36711;51.972;21.204;2023-07-09T07:26:08;4.10;;;1.90;;
50745;SDS011;36711;51.972;21.204;2023-07-09T07:28:36;4.00;;;1.70;;
50745;SDS011;36711;51.972;21.204;2023-07-09T07:31:06;6.30;;;1.80;;
50745;SDS011;36711;51.972;21.204;2023-07-09T07:33:38;3.20;;;1.80;;
50745;SDS011;36711;51.972;21.204;2023-07-09T07:36:08;2.20;;;1.40;;
50745;SDS011;36711;51.972;21.204;2023-07-09T07:41:09;1.90;;;1.80;;
50745;SDS011;36711;51.972;21.204;2023-07-09T07:43:37;3.20;;;1.50;;
50745;SDS011;36711;51.972;21.204;2023-07-09T07:46:06;1.70;;;1.30;;
50745;SDS011;36711;51.972;21.204;2023-07-09T07:48:36;2.30;;;1.60;;
50745;SDS011;36711;51.972;21.204;2023-07-09T07:51:05;4.20;;;1.70;;
50745;SDS011;36711;51.972;21.204;2023-07-09T07:53:34;4.30;;;1.60;;
50745;SDS011;36711;51.972;21.204;2023-07-09T07:56:03;3.60;;;2.00;;
50745;SDS011;36711;51.972;21.204;2023-07-09T07:58:32;3.70;;;1.70;;
50745;SDS011;36711;51.972;21.204;2023-07-09T08:01:01;1.80;;;1.60;;
50745;SDS011;36711;51.972;21.204;2023-07-09T08:03:31;2.00;;;1.60;;
50745;SDS011;36711;51.972;21.204;2023-07-09T08:06:00;3.10;;;1.60;;
50745;SDS011;36711;51.972;21.204;2023-07-09T08:08:30;3.50;;;1.70;;
50745;SDS011;36711;51.972;21.204;2023-07-09T08:11:00;2.10;;;1.70;;
50745;SDS011;36711;51.972;21.204;2023-07-09T08:13:29;1.90;;;1.20;;
50745;SDS011;36711;51.972;21.204;2023-07-09T08:15:57;2.70;;;1.30;;
50745;SDS011;36711;51.972;21.204;2023-07-09T08:18:26;3.10;;;1.40;;
50745;SDS011;36711;51.972;21.204;2023-07-09T08:20:55;3.00;;;1.40;;
50745;SDS011;36711;51.972;21.204;2023-07-09T08:23:24;2.60;;;1.60;;
50745;SDS011;36711;51.972;21.204;2023-07-09T08:25:53;2.00;;;1.50;;
50745;SDS011;36711;51.972;21.204;2023-07-09T08:28:22;1.60;;;1.40;;
50745;SDS011;36711;51.972;21.204;2023-07-09T08:30:51;3.60;;;1.60;;
50745;SDS011;36711;51.972;21.204;2023-07-09T08:33:20;1.90;;;1.80;;
50745;SDS011;36711;51.972;21.204;2023-07-09T08:35:49;1.70;;;1.50;;
50745;SDS011;36711;51.972;21.204;2023-07-09T08:38:19;2.60;;;1.60;;
50745;SDS011;36711;51.972;21.204;2023-07-09T08:41:01;3.00;;;1.40;;
50745;SDS011;36711;51.972;21.204;2023-07-09T08:48:41;1.90;;;1.40;;
50745;SDS011;36711;51.972;21.204;2023-07-09T08:53:48;2.20;;;1.40;;
50745;SDS011;36711;51.972;21.204;2023-07-09T08:56:18;1.60;;;1.30;;
50745;SDS011;36711;51.972;21.204;2023-07-09T08:58:47;7.90;;;1.30;;
50745;SDS011;36711;51.972;21.204;2023-07-09T09:01:17;5.20;;;1.30;;
50745;SDS011;36711;51.972;21.204;2023-07-09T09:03:49;2.30;;;1.30;;
50745;SDS011;36711;51.972;21.204;2023-07-09T09:06:20;2.20;;;1.30;;
50745;SDS011;36711;51.972;21.204;2023-07-09T09:11:38;3.70;;;1.30;;
50745;SDS011;36711;51.972;21.204;2023-07-09T09:14:18;1.50;;;1.20;;
50745;SDS011;36711;51.972;21.204;2023-07-09T09:16:48;3.40;;;1.20;;
50745;SDS011;36711;51.972;21.204;2023-07-09T09:19:22;1.80;;;1.20;;
50745;SDS011;36711;51.972;21.204;2023-07-09T09:21:54;1.50;;;1.20;;
50745;SDS011;36711;51.972;21.204;2023-07-09T09:24:27;2.00;;;1.20;;
50745;SDS011;36711;51.972;21.204;2023-07-09T09:26:57;1.40;;;1.20;;
50745;SDS011;36711;51.972;21.204;2023-07-09T09:29:26;2.20;;;1.30;;
50745;SDS011;36711;51.972;21.204;2023-07-09T09:31:56;1.80;;;1.00;;
50745;SDS011;36711;51.972;21.204;2023-07-09T09:34:28;1.20;;;0.80;;
50745;SDS011;36711;51.972;21.204;2023-07-09T09:36:58;0.70;;;0.70;;
50745;SDS011;36711;51.972;21.204;2023-07-09T09:39:27;1.90;;;0.90;;
50745;SDS011;36711;51.972;21.204;2023-07-09T09:41:59;1.80;;;0.60;;
50745;SDS011;36711;51.972;21.204;2023-07-09T09:44:28;0.60;;;0.60;;
50745;SDS011;36711;51.972;21.204;2023-07-09T09:46:57;1.10;;;0.60;;
50745;SDS011;36711;51.972;21.204;2023-07-09T09:49:37;2.20;;;0.80;;
50745;SDS011;36711;51.972;21.204;2023-07-09T09:52:17;3.20;;;0.60;;
50745;SDS011;36711;51.972;21.204;2023-07-09T09:54:53;2.10;;;0.50;;
50745;SDS011;36711;51.972;21.204;2023-07-09T09:57:23;2.40;;;0.50;;
50745;SDS011;36711;51.972;21.204;2023-07-09T09:59:53;0.30;;;0.30;;
50745;SDS011;36711;51.972;21.204;2023-07-09T10:02:24;0.60;;;0.40;;
50745;SDS011;36711;51.972;21.204;2023-07-09T10:04:53;1.90;;;0.50;;
50745;SDS011;36711;51.972;21.204;2023-07-09T10:07:24;2.40;;;0.50;;
50745;SDS011;36711;51.972;21.204;2023-07-09T10:09:55;0.40;;;0.40;;
50745;SDS011;36711;51.972;21.204;2023-07-09T10:12:32;0.50;;;0.50;;
50745;SDS011;36711;51.972;21.204;2023-07-09T10:15:13;2.50;;;0.70;;
50745;SDS011;36711;51.972;21.204;2023-07-09T10:33:18;4.20;;;4.00;;
50745;SDS011;36711;51.972;21.204;2023-07-09T10:41:09;5.20;;;4.90;;
50745;SDS011;36711;51.972;21.204;2023-07-09T10:46:25;4.60;;;4.30;;
50745;SDS011;36711;51.972;21.204;2023-07-09T10:48:58;3.80;;;3.70;;
50745;SDS011;36711;51.972;21.204;2023-07-09T10:51:54;3.60;;;3.50;;
50745;SDS011;36711;51.972;21.204;2023-07-09T10:56:59;2.70;;;2.60;;
50745;SDS011;36711;51.972;21.204;2023-07-09T10:59:31;2.60;;;2.50;;
50745;SDS011;36711;51.972;21.204;2023-07-09T11:02:04;2.70;;;2.40;;
50745;SDS011;36711;51.972;21.204;2023-07-09T11:04:39;3.60;;;2.20;;
50745;SDS011;36711;51.972;21.204;2023-07-09T11:07:11;2.10;;;2.00;;
50745;SDS011;36711;51.972;21.204;2023-07-09T11:09:42;1.90;;;1.80;;
50745;SDS011;36711;51.972;21.204;2023-07-09T11:12:16;1.50;;;1.40;;
50745;SDS011;36711;51.972;21.204;2023-07-09T11:14:55;3.00;;;1.20;;
50745;SDS011;36711;51.972;21.204;2023-07-09T11:17:25;1.10;;;1.10;;
50745;SDS011;36711;51.972;21.204;2023-07-09T11:19:56;0.90;;;0.90;;
50745;SDS011;36711;51.972;21.204;2023-07-09T11:22:27;1.00;;;0.80;;
50745;SDS011;36711;51.972;21.204;2023-07-09T11:25:07;0.70;;;0.70;;
50745;SDS011;36711;51.972;21.204;2023-07-09T11:27:49;0.90;;;0.90;;
50745;SDS011;36711;51.972;21.204;2023-07-09T11:30:21;0.70;;;0.70;;
50745;SDS011;36711;51.972;21.204;2023-07-09T11:32:52;3.60;;;0.90;;
50745;SDS011;36711;51.972;21.204;2023-07-09T11:35:23;0.80;;;0.80;;
50745;SDS011;36711;51.972;21.204;2023-07-09T11:37:52;0.80;;;0.50;;
50745;SDS011;36711;51.972;21.204;2023-07-09T11:45:32;1.00;;;0.40;;
50745;SDS011;36711;51.972;21.204;2023-07-09T11:48:06;0.40;;;0.40;;
50745;SDS011;36711;51.972;21.204;2023-07-09T11:50:39;1.30;;;0.40;;
50745;SDS011;36711;51.972;21.204;2023-07-09T11:53:18;0.90;;;0.50;;
50745;SDS011;36711;51.972;21.204;2023-07-09T11:55:49;0.80;;;0.40;;
50745;SDS011;36711;51.972;21.204;2023-07-09T11:58:18;0.60;;;0.50;;
50745;SDS011;36711;51.972;21.204;2023-07-09T12:00:51;2.40;;;0.50;;
50745;SDS011;36711;51.972;21.204;2023-07-09T12:03:24;0.30;;;0.30;;
50745;SDS011;36711;51.972;21.204;2023-07-09T12:05:57;0.50;;;0.30;;
50745;SDS011;36711;51.972;21.204;2023-07-09T12:08:35;1.10;;;0.40;;
50745;SDS011;36711;51.972;21.204;2023-07-09T12:11:05;0.30;;;0.30;;
50745;SDS011;36711;51.972;21.204;2023-07-09T12:13:36;0.40;;;0.40;;
50745;SDS011;36711;51.972;21.204;2023-07-09T12:19:11;0.40;;;0.40;;
50745;SDS011;36711;51.972;21.204;2023-07-09T12:21:41;0.40;;;0.40;;
50745;SDS011;36711;51.972;21.204;2023-07-09T12:24:20;0.30;;;0.30;;
50745;SDS011;36711;51.972;21.204;2023-07-09T12:26:51;0.30;;;0.20;;
50745;SDS011;36711;51.972;21.204;2023-07-09T12:29:23;0.20;;;0.20;;
50745;SDS011;36711;51.972;21.204;2023-07-09T12:31:52;0.30;;;0.30;;
50745;SDS011;36711;51.972;21.204;2023-07-09T12:34:21;0.40;;;0.40;;
50745;SDS011;36711;51.972;21.204;2023-07-09T12:36:50;0.30;;;0.30;;
50745;SDS011;36711;51.972;21.204;2023-07-09T12:39:23;0.40;;;0.40;;
50745;SDS011;36711;51.972;21.204;2023-07-09T12:41:56;0.80;;;0.40;;
50745;SDS011;36711;51.972;21.204;2023-07-09T12:44:25;0.60;;;0.30;;
50745;SDS011;36711;51.972;21.204;2023-07-09T12:46:54;1.20;;;0.40;;
50745;SDS011;36711;51.972;21.204;2023-07-09T12:49:27;3.20;;;0.30;;
50745;SDS011;36711;51.972;21.204;2023-07-09T12:51:57;0.90;;;0.30;;
50745;SDS011;36711;51.972;21.204;2023-07-09T12:54:27;0.50;;;0.40;;
50745;SDS011;36711;51.972;21.204;2023-07-09T12:56:58;0.60;;;0.30;;
50745;SDS011;36711;51.972;21.204;2023-07-09T12:59:35;0.20;;;0.20;;
50745;SDS011;36711;51.972;21.204;2023-07-09T13:04:43;0.30;;;0.30;;
50745;SDS011;36711;51.972;21.204;2023-07-09T13:09:50;0.70;;;0.30;;
50745;SDS011;36711;51.972;21.204;2023-07-09T13:12:20;2.60;;;0.40;;
50745;SDS011;36711;51.972;21.204;2023-07-09T13:14:53;0.30;;;0.30;;
50745;SDS011;36711;51.972;21.204;2023-07-09T13:17:27;0.50;;;0.40;;
50745;SDS011;36711;51.972;21.204;2023-07-09T13:19:56;0.80;;;0.40;;
50745;SDS011;36711;51.972;21.204;2023-07-09T13:22:27;0.40;;;0.40;;
50745;SDS011;36711;51.972;21.204;2023-07-09T13:27:25;0.70;;;0.40;;
50745;SDS011;36711;51.972;21.204;2023-07-09T13:29:54;1.00;;;0.30;;
50745;SDS011;36711;51.972;21.204;2023-07-09T13:32:23;0.40;;;0.40;;
50745;SDS011;36711;51.972;21.204;2023-07-09T13:34:52;1.30;;;0.30;;
50745;SDS011;36711;51.972;21.204;2023-07-09T13:37:21;0.90;;;0.50;;
50745;SDS011;36711;51.972;21.204;2023-07-09T13:39:49;0.40;;;0.40;;
50745;SDS011;36711;51.972;21.204;2023-07-09T13:42:19;0.50;;;0.50;;
50745;SDS011;36711;51.972;21.204;2023-07-09T13:44:47;0.40;;;0.40;;
50745;SDS011;36711;51.972;21.204;2023-07-09T13:47:18;2.40;;;0.40;;
50745;SDS011;36711;51.972;21.204;2023-07-09T13:49:47;0.60;;;0.50;;
50745;SDS011;36711;51.972;21.204;2023-07-09T13:52:18;0.70;;;0.50;;
50745;SDS011;36711;51.972;21.204;2023-07-09T13:54:47;0.40;;;0.40;;
50745;SDS011;36711;51.972;21.204;2023-07-09T13:57:20;0.90;;;0.60;;
50745;SDS011;36711;51.972;21.204;2023-07-09T13:59:50;2.20;;;0.50;;
50745;SDS011;36711;51.972;21.204;2023-07-09T14:02:30;0.50;;;0.50;;
50745;SDS011;36711;51.972;21.204;2023-07-09T14:05:04;1.10;;;0.40;;
50745;SDS011;36711;51.972;21.204;2023-07-09T14:07:35;1.20;;;0.60;;
50745;SDS011;36711;51.972;21.204;2023-07-09T14:10:06;1.10;;;0.50;;
50745;SDS011;36711;51.972;21.204;2023-07-09T14:12:36;4.60;;;0.70;;
50745;SDS011;36711;51.972;21.204;2023-07-09T14:15:09;0.90;;;0.60;;
50745;SDS011;36711;51.972;21.204;2023-07-09T14:17:40;0.90;;;0.80;;
50745;SDS011;36711;51.972;21.204;2023-07-09T14:20:16;2.40;;;0.50;;
50745;SDS011;36711;51.972;21.204;2023-07-09T14:22:44;1.40;;;0.60;;
50745;SDS011;36711;51.972;21.204;2023-07-09T14:25:23;0.70;;;0.60;;
50745;SDS011;36711;51.972;21.204;2023-07-09T14:27:53;1.70;;;0.40;;
50745;SDS011;36711;51.972;21.204;2023-07-09T14:30:23;2.90;;;0.50;;
50745;SDS011;36711;51.972;21.204;2023-07-09T14:32:55;1.30;;;0.50;;
50745;SDS011;36711;51.972;21.204;2023-07-09T14:35:24;0.70;;;0.50;;
50745;SDS011;36711;51.972;21.204;2023-07-09T14:37:53;4.20;;;0.70;;
50745;SDS011;36711;51.972;21.204;2023-07-09T14:40:27;1.60;;;0.40;;
50745;SDS011;36711;51.972;21.204;2023-07-09T14:42:57;4.10;;;0.60;;
50745;SDS011;36711;51.972;21.204;2023-07-09T14:45:28;2.60;;;0.60;;
50745;SDS011;36711;51.972;21.204;2023-07-09T14:47:57;0.70;;;0.40;;
50745;SDS011;36711;51.972;21.204;2023-07-09T14:50:26;0.50;;;0.50;;
50745;SDS011;36711;51.972;21.204;2023-07-09T14:52:55;1.40;;;0.50;;
50745;SDS011;36711;51.972;21.204;2023-07-09T14:55:23;2.80;;;0.60;;
50745;SDS011;36711;51.972;21.204;2023-07-09T14:57:53;1.60;;;0.60;;
50745;SDS011;36711;51.972;21.204;2023-07-09T15:00:22;1.40;;;0.50;;
50745;SDS011;36711;51.972;21.204;2023-07-09T15:02:51;2.00;;;0.70;;
50745;SDS011;36711;51.972;21.204;2023-07-09T15:05:22;3.60;;;0.60;;
50745;SDS011;36711;51.972;21.204;2023-07-09T15:07:52;3.30;;;0.50;;
50745;SDS011;36711;51.972;21.204;2023-07-09T15:10:24;3.20;;;0.70;;
50745;SDS011;36711;51.972;21.204;2023-07-09T15:12:55;0.50;;;0.50;;
50745;SDS011;36711;51.972;21.204;2023-07-09T15:15:25;0.90;;;0.70;;
50745;SDS011;36711;51.972;21.204;2023-07-09T15:17:55;1.80;;;0.60;;
50745;SDS011;36711;51.972;21.204;2023-07-09T15:20:25;1.20;;;0.60;;
50745;SDS011;36711;51.972;21.204;2023-07-09T15:22:56;0.80;;;0.70;;
50745;SDS011;36711;51.972;21.204;2023-07-09T15:25:26;0.80;;;0.50;;
50745;SDS011;36711;51.972;21.204;2023-07-09T15:27:56;0.70;;;0.50;;
50745;SDS011;36711;51.972;21.204;2023-07-09T15:30:26;4.20;;;0.70;;
50745;SDS011;36711;51.972;21.204;2023-07-09T15:32:56;3.20;;;0.70;;
50745;SDS011;36711;51.972;21.204;2023-07-09T15:35:33;1.10;;;0.70;;
50745;SDS011;36711;51.972;21.204;2023-07-09T15:38:12;1.70;;;0.80;;
50745;SDS011;36711;51.972;21.204;2023-07-09T15:40:45;1.40;;;0.60;;
50745;SDS011;36711;51.972;21.204;2023-07-09T15:43:18;1.50;;;0.70;;
50745;SDS011;36711;51.972;21.204;2023-07-09T15:45:51;3.80;;;0.80;;
50745;SDS011;36711;51.972;21.204;2023-07-09T15:48:27;0.70;;;0.70;;
50745;SDS011;36711;51.972;21.204;2023-07-09T15:50:59;1.00;;;0.80;;
50745;SDS011;36711;51.972;21.204;2023-07-09T15:53:29;1.10;;;0.60;;
50745;SDS011;36711;51.972;21.204;2023-07-09T15:56:00;1.30;;;0.60;;